sensor_id;sensor_type;location;lat;lon;timestamp;pressure;altitude;pressure_sealevel;temperature;humidity
12475;BME280;6302;42.624;23.334;2023-04-27T00:01:16;92976.72;;;7.32;88.52
12475;BME280;6302;42.624;23.334;2023-04-27T00:03:43;92972.97;;;7.26;86.24
12475;BME280;6302;42.624;23.334;2023-04-27T00:06:10;92978.22;;;7.22;86.54
12475;BME280;6302;42.624;23.334;2023-04-27T00:08:38;92983.88;;;7.28;86.63
12475;BME280;6302;42.624;23.334;2023-04-27T00:11:05;92967.69;;;7.15;86.30
12475;BME280;6302;42.624;23.334;2023-04-27T00:13:32;92976.34;;;7.22;87.03
12475;BME280;6302;42.624;23.334;2023-04-27T00:15:59;92983.13;;;7.27;86.32
12475;BME280;6302;42.624;23.334;2023-04-27T00:18:28;92981.59;;;7.26;86.08
12475;BME280;6302;42.624;23.334;2023-04-27T00:20:55;92995.56;;;7.23;86.24
12475;BME280;6302;42.624;23.334;2023-04-27T00:23:21;92987.63;;;7.16;87.04
12475;BME280;6302;42.624;23.334;2023-04-27T00:25:49;92989.53;;;7.08;86.80
12475;BME280;6302;42.624;23.334;2023-04-27T00:28:16;92980.09;;;7.04;86.87
12475;BME280;6302;42.624;23.334;2023-04-27T00:30:46;92985.41;;;7.11;86.48
12475;BME280;6302;42.624;23.334;2023-04-27T00:33:13;92974.44;;;6.91;87.37
12475;BME280;6302;42.624;23.334;2023-04-27T00:35:40;92991.78;;;7.03;87.40
12475;BME280;6302;42.624;23.334;2023-04-27T00:38:06;92990.66;;;6.93;88.07
12475;BME280;6302;42.624;23.334;2023-04-27T00:40:33;92982.75;;;6.90;88.29
12475;BME280;6302;42.624;23.334;2023-04-27T00:43:01;92995.16;;;6.96;88.31
12475;BME280;6302;42.624;23.334;2023-04-27T00:45:28;92992.16;;;6.87;88.40
12475;BME280;6302;42.624;23.334;2023-04-27T00:47:55;92980.09;;;6.72;87.86
12475;BME280;6302;42.624;23.334;2023-04-27T00:50:26;93000.38;;;6.61;88.40
12475;BME280;6302;42.624;23.334;2023-04-27T00:52:55;92991.75;;;6.68;88.80
12475;BME280;6302;42.624;23.334;2023-04-27T00:55:22;92990.59;;;6.58;88.56
12475;BME280;6302;42.624;23.334;2023-04-27T00:57:48;93003.00;;;6.54;88.70
12475;BME280;6302;42.624;23.334;2023-04-27T01:00:17;92998.09;;;6.49;89.66
12475;BME280;6302;42.624;23.334;2023-04-27T01:02:44;93001.13;;;6.51;89.58
12475;BME280;6302;42.624;23.334;2023-04-27T01:05:13;92998.84;;;6.46;90.16
12475;BME280;6302;42.624;23.334;2023-04-27T01:07:41;93001.09;;;6.47;90.19
12475;BME280;6302;42.624;23.334;2023-04-27T01:10:08;93010.13;;;6.50;88.80
12475;BME280;6302;42.624;23.334;2023-04-27T01:12:35;93004.47;;;6.41;89.44
12475;BME280;6302;42.624;23.334;2023-04-27T01:15:02;93009.72;;;6.44;88.66
12475;BME280;6302;42.624;23.334;2023-04-27T01:17:30;93002.59;;;6.45;88.51
12475;BME280;6302;42.624;23.334;2023-04-27T01:19:57;93001.09;;;6.40;87.70
12475;BME280;6302;42.624;23.334;2023-04-27T01:22:24;93007.09;;;6.34;87.30
12475;BME280;6302;42.624;23.334;2023-04-27T01:24:52;93010.09;;;6.36;87.60
12475;BME280;6302;42.624;23.334;2023-04-27T01:27:19;93017.22;;;6.35;88.32
12475;BME280;6302;42.624;23.334;2023-04-27T01:29:46;93014.97;;;6.34;89.11
12475;BME280;6302;42.624;23.334;2023-04-27T01:32:15;93014.19;;;6.30;88.06
12475;BME280;6302;42.624;23.334;2023-04-27T01:34:42;93013.47;;;6.33;87.72
12475;BME280;6302;42.624;23.334;2023-04-27T01:37:09;93021.34;;;6.33;88.47
12475;BME280;6302;42.624;23.334;2023-04-27T01:39:36;93012.34;;;6.34;87.37
12475;BME280;6302;42.624;23.334;2023-04-27T01:42:04;93013.06;;;6.24;87.74
12475;BME280;6302;42.624;23.334;2023-04-27T01:44:31;93017.59;;;6.27;88.68
12475;BME280;6302;42.624;23.334;2023-04-27T01:46:58;93023.59;;;6.31;88.66
12475;BME280;6302;42.624;23.334;2023-04-27T01:49:25;93001.03;;;6.23;87.57
12475;BME280;6302;42.624;23.334;2023-04-27T01:51:52;93025.84;;;6.22;86.97
12475;BME280;6302;42.624;23.334;2023-04-27T01:54:18;93013.81;;;6.28;87.60
12475;BME280;6302;42.624;23.334;2023-04-27T01:56:45;93012.31;;;6.30;87.19
12475;BME280;6302;42.624;23.334;2023-04-27T01:59:13;93013.06;;;6.24;87.51
12475;BME280;6302;42.624;23.334;2023-04-27T02:01:40;93013.03;;;6.20;88.08
12475;BME280;6302;42.624;23.334;2023-04-27T02:04:07;93017.94;;;6.22;87.80
12475;BME280;6302;42.624;23.334;2023-04-27T02:06:34;93014.56;;;6.21;87.67
12475;BME280;6302;42.624;23.334;2023-04-27T02:09:00;93017.50;;;6.13;87.90
12475;BME280;6302;42.624;23.334;2023-04-27T02:11:27;93018.31;;;6.27;86.76
12475;BME280;6302;42.624;23.334;2023-04-27T02:13:54;93015.66;;;6.20;86.77
12475;BME280;6302;42.624;23.334;2023-04-27T02:16:22;93019.81;;;6.21;86.27
12475;BME280;6302;42.624;23.334;2023-04-27T02:18:49;93016.78;;;6.16;86.09
12475;BME280;6302;42.624;23.334;2023-04-27T02:21:18;93020.50;;;6.08;87.79
12475;BME280;6302;42.624;23.334;2023-04-27T02:23:45;93016.41;;;6.14;86.90
12475;BME280;6302;42.624;23.334;2023-04-27T02:26:15;93022.81;;;6.20;86.51
12475;BME280;6302;42.624;23.334;2023-04-27T02:28:43;93027.31;;;6.16;86.44
12475;BME280;6302;42.624;23.334;2023-04-27T02:31:10;93019.78;;;6.18;86.60
12475;BME280;6302;42.624;23.334;2023-04-27T02:33:38;93022.81;;;6.20;85.28
12475;BME280;6302;42.624;23.334;2023-04-27T02:36:06;93008.13;;;6.12;85.73
12475;BME280;6302;42.624;23.334;2023-04-27T02:38:33;93022.78;;;6.13;86.10
12475;BME280;6302;42.624;23.334;2023-04-27T02:41:00;93018.63;;;6.05;85.73
12475;BME280;6302;42.624;23.334;2023-04-27T02:43:27;93019.38;;;6.09;85.78
12475;BME280;6302;42.624;23.334;2023-04-27T02:46:01;93023.91;;;6.05;85.44
12475;BME280;6302;42.624;23.334;2023-04-27T02:48:27;93021.25;;;6.05;85.35
12475;BME280;6302;42.624;23.334;2023-04-27T02:50:56;93021.25;;;6.05;86.13
12475;BME280;6302;42.624;23.334;2023-04-27T02:53:23;93018.97;;;6.03;86.25
12475;BME280;6302;42.624;23.334;2023-04-27T02:55:50;93026.16;;;6.06;86.19
12475;BME280;6302;42.624;23.334;2023-04-27T02:58:18;93020.50;;;6.08;85.69
12475;BME280;6302;42.624;23.334;2023-04-27T03:00:45;93021.25;;;6.05;86.56
12475;BME280;6302;42.624;23.334;2023-04-27T03:03:12;93029.56;;;6.14;86.52
12475;BME280;6302;42.624;23.334;2023-04-27T03:05:39;93033.22;;;5.95;86.10
12475;BME280;6302;42.624;23.334;2023-04-27T03:08:07;93032.88;;;6.04;85.82
12475;BME280;6302;42.624;23.334;2023-04-27T03:10:35;93025.00;;;6.04;85.94
12475;BME280;6302;42.624;23.334;2023-04-27T03:13:05;93034.41;;;6.05;85.80
12475;BME280;6302;42.624;23.334;2023-04-27T03:15:32;93042.66;;;6.00;85.78
12475;BME280;6302;42.624;23.334;2023-04-27T03:17:59;93043.03;;;6.02;86.02
12475;BME280;6302;42.624;23.334;2023-04-27T03:20:25;93047.50;;;5.98;85.16
12475;BME280;6302;42.624;23.334;2023-04-27T03:22:52;93040.75;;;6.00;85.66
12475;BME280;6302;42.624;23.334;2023-04-27T03:25:20;93035.16;;;6.02;85.66
12475;BME280;6302;42.624;23.334;2023-04-27T03:27:47;93051.69;;;6.06;84.99
12475;BME280;6302;42.624;23.334;2023-04-27T03:30:15;93046.78;;;5.97;84.58
12475;BME280;6302;42.624;23.334;2023-04-27T03:32:43;93051.28;;;5.97;85.06
12475;BME280;6302;42.624;23.334;2023-04-27T03:35:10;93051.28;;;6.00;85.38
12475;BME280;6302;42.624;23.334;2023-04-27T03:37:37;93052.41;;;6.03;85.30
12475;BME280;6302;42.624;23.334;2023-04-27T03:40:04;93054.31;;;6.02;85.89
12475;BME280;6302;42.624;23.334;2023-04-27T03:42:33;93050.53;;;6.00;85.20
12475;BME280;6302;42.624;23.334;2023-04-27T03:45:00;93054.31;;;6.06;84.15
12475;BME280;6302;42.624;23.334;2023-04-27T03:47:26;93061.78;;;6.00;84.05
12475;BME280;6302;42.624;23.334;2023-04-27T03:49:53;93064.44;;;6.00;84.67
12475;BME280;6302;42.624;23.334;2023-04-27T03:52:20;93053.63;;;6.12;84.05
12475;BME280;6302;42.624;23.334;2023-04-27T03:54:47;93059.56;;;6.06;83.89
12475;BME280;6302;42.624;23.334;2023-04-27T03:57:14;93069.69;;;6.00;83.16
12475;BME280;6302;42.624;23.334;2023-04-27T03:59:42;93074.59;;;6.02;83.08
12475;BME280;6302;42.624;23.334;2023-04-27T04:02:09;93071.25;;;6.05;83.10
12475;BME280;6302;42.624;23.334;2023-04-27T04:04:36;93081.41;;;6.10;83.65
12475;BME280;6302;42.624;23.334;2023-04-27T04:07:03;93087.78;;;6.09;84.07
12475;BME280;6302;42.624;23.334;2023-04-27T04:09:30;93077.59;;;6.04;82.62
12475;BME280;6302;42.624;23.334;2023-04-27T04:11:56;93079.91;;;6.12;83.48
12475;BME280;6302;42.624;23.334;2023-04-27T04:14:23;93082.22;;;6.21;83.65
12475;BME280;6302;42.624;23.334;2023-04-27T04:16:51;93091.19;;;6.13;81.66
12475;BME280;6302;42.624;23.334;2023-04-27T04:19:18;93090.44;;;6.16;81.95
12475;BME280;6302;42.624;23.334;2023-04-27T04:21:45;93097.56;;;6.12;81.72
12475;BME280;6302;42.624;23.334;2023-04-27T04:24:12;93101.75;;;6.23;81.73
12475;BME280;6302;42.624;23.334;2023-04-27T04:26:40;93095.34;;;6.17;82.86
12475;BME280;6302;42.624;23.334;2023-04-27T04:29:07;93101.69;;;6.13;82.52
12475;BME280;6302;42.624;23.334;2023-04-27T04:31:34;93105.50;;;6.22;81.97
12475;BME280;6302;42.624;23.334;2023-04-27T04:34:02;93098.00;;;6.21;81.40
12475;BME280;6302;42.624;23.334;2023-04-27T04:36:31;93113.47;;;6.29;81.32
12475;BME280;6302;42.624;23.334;2023-04-27T04:38:58;93107.78;;;6.24;80.38
12475;BME280;6302;42.624;23.334;2023-04-27T04:41:24;93114.53;;;6.25;80.62
12475;BME280;6302;42.624;23.334;2023-04-27T04:43:51;93120.94;;;6.27;80.18
12475;BME280;6302;42.624;23.334;2023-04-27T04:46:18;93119.88;;;6.32;79.80
12475;BME280;6302;42.624;23.334;2023-04-27T04:48:46;93121.38;;;6.40;80.66
12475;BME280;6302;42.624;23.334;2023-04-27T04:51:14;93127.44;;;6.44;79.43
12475;BME280;6302;42.624;23.334;2023-04-27T04:53:41;93130.13;;;6.58;79.33
12475;BME280;6302;42.624;23.334;2023-04-27T04:56:09;93136.53;;;6.64;79.68
12475;BME280;6302;42.624;23.334;2023-04-27T04:58:36;93143.34;;;6.72;78.22
12475;BME280;6302;42.624;23.334;2023-04-27T05:01:03;93138.06;;;6.72;78.33
12475;BME280;6302;42.624;23.334;2023-04-27T05:03:30;93142.91;;;6.60;77.18
12475;BME280;6302;42.624;23.334;2023-04-27T05:05:57;93148.59;;;6.65;77.88
12475;BME280;6302;42.624;23.334;2023-04-27T05:08:27;93154.63;;;6.73;78.65
12475;BME280;6302;42.624;23.334;2023-04-27T05:10:54;93156.16;;;6.74;78.03
12475;BME280;6302;42.624;23.334;2023-04-27T05:13:21;93156.19;;;6.84;78.40
12475;BME280;6302;42.624;23.334;2023-04-27T05:15:49;93151.72;;;7.02;77.21
12475;BME280;6302;42.624;23.334;2023-04-27T05:18:16;93160.75;;;6.91;76.14
12475;BME280;6302;42.624;23.334;2023-04-27T05:20:43;93160.31;;;6.78;78.35
12475;BME280;6302;42.624;23.334;2023-04-27T05:23:09;93170.88;;;6.85;78.01
12475;BME280;6302;42.624;23.334;2023-04-27T05:25:38;93165.19;;;6.80;78.01
12475;BME280;6302;42.624;23.334;2023-04-27T05:28:06;93169.31;;;6.77;78.03
12475;BME280;6302;42.624;23.334;2023-04-27T05:30:34;93173.44;;;6.75;79.45
12475;BME280;6302;42.624;23.334;2023-04-27T05:33:01;93159.88;;;6.69;78.67
12475;BME280;6302;42.624;23.334;2023-04-27T05:35:28;93173.50;;;6.85;79.15
12475;BME280;6302;42.624;23.334;2023-04-27T05:37:55;93177.25;;;6.84;78.29
12475;BME280;6302;42.624;23.334;2023-04-27T05:40:22;93176.88;;;6.82;79.03
12475;BME280;6302;42.624;23.334;2023-04-27T05:42:50;93173.84;;;6.80;77.95
12475;BME280;6302;42.624;23.334;2023-04-27T05:45:18;93175.41;;;6.92;79.75
12475;BME280;6302;42.624;23.334;2023-04-27T05:47:45;93178.81;;;6.99;80.09
12475;BME280;6302;42.624;23.334;2023-04-27T05:50:12;93188.63;;;7.02;80.17
12475;BME280;6302;42.624;23.334;2023-04-27T05:52:39;93175.81;;;7.04;81.17
12475;BME280;6302;42.624;23.334;2023-04-27T05:55:06;93177.69;;;6.93;79.43
12475;BME280;6302;42.624;23.334;2023-04-27T05:57:33;93179.59;;;7.03;81.15
12475;BME280;6302;42.624;23.334;2023-04-27T06:00:06;93167.56;;;7.09;80.21
12475;BME280;6302;42.624;23.334;2023-04-27T06:02:35;93178.09;;;7.02;79.23
12475;BME280;6302;42.624;23.334;2023-04-27T06:05:02;93177.31;;;7.02;81.43
12475;BME280;6302;42.624;23.334;2023-04-27T06:07:29;93173.19;;;7.04;78.33
12475;BME280;6302;42.624;23.334;2023-04-27T06:09:56;93184.09;;;7.06;78.55
12475;BME280;6302;42.624;23.334;2023-04-27T06:12:23;93183.00;;;7.14;79.04
12475;BME280;6302;42.624;23.334;2023-04-27T06:14:49;93184.53;;;7.26;78.34
12475;BME280;6302;42.624;23.334;2023-04-27T06:17:17;93180.75;;;7.13;78.86
12475;BME280;6302;42.624;23.334;2023-04-27T06:19:44;93183.78;;;7.22;79.62
12475;BME280;6302;42.624;23.334;2023-04-27T06:22:11;93181.53;;;7.31;79.47
12475;BME280;6302;42.624;23.334;2023-04-27T06:24:38;93180.44;;;7.46;80.24
12475;BME280;6302;42.624;23.334;2023-04-27T06:27:06;93177.06;;;7.63;78.00
12475;BME280;6302;42.624;23.334;2023-04-27T06:29:33;93175.59;;;7.62;78.06
12475;BME280;6302;42.624;23.334;2023-04-27T06:32:00;93180.09;;;7.65;77.07
12475;BME280;6302;42.624;23.334;2023-04-27T06:34:32;93187.63;;;7.70;78.92
12475;BME280;6302;42.624;23.334;2023-04-27T06:36:59;93190.28;;;7.81;77.21
12475;BME280;6302;42.624;23.334;2023-04-27T06:39:26;93189.50;;;7.56;77.13
12475;BME280;6302;42.624;23.334;2023-04-27T06:41:53;93191.75;;;7.61;77.75
12475;BME280;6302;42.624;23.334;2023-04-27T06:44:20;93189.50;;;7.63;78.04
12475;BME280;6302;42.624;23.334;2023-04-27T06:46:47;93183.13;;;7.88;78.35
12475;BME280;6302;42.624;23.334;2023-04-27T06:49:13;93177.84;;;7.99;77.35
12475;BME280;6302;42.624;23.334;2023-04-27T06:51:42;93188.03;;;7.97;76.23
12475;BME280;6302;42.624;23.334;2023-04-27T06:54:10;93188.78;;;8.08;77.19
12475;BME280;6302;42.624;23.334;2023-04-27T06:56:37;93186.53;;;8.24;76.62
12475;BME280;6302;42.624;23.334;2023-04-27T06:59:04;93192.56;;;8.21;75.42
12475;BME280;6302;42.624;23.334;2023-04-27T07:01:31;93185.38;;;8.32;76.43
12475;BME280;6302;42.624;23.334;2023-04-27T07:03:58;93190.28;;;8.41;75.08
12475;BME280;6302;42.624;23.334;2023-04-27T07:06:26;93187.22;;;8.67;74.82
12475;BME280;6302;42.624;23.334;2023-04-27T07:08:54;93183.47;;;8.61;74.11
12475;BME280;6302;42.624;23.334;2023-04-27T07:11:21;93181.97;;;8.49;72.54
12475;BME280;6302;42.624;23.334;2023-04-27T07:13:48;93189.47;;;8.65;73.82
12475;BME280;6302;42.624;23.334;2023-04-27T07:16:15;93172.84;;;8.79;73.86
12475;BME280;6302;42.624;23.334;2023-04-27T07:18:42;93189.44;;;8.79;73.01
12475;BME280;6302;42.624;23.334;2023-04-27T07:21:10;93183.81;;;8.74;71.94
12475;BME280;6302;42.624;23.334;2023-04-27T07:23:37;93173.25;;;8.74;71.60
12475;BME280;6302;42.624;23.334;2023-04-27T07:26:06;93181.84;;;8.95;71.68
12475;BME280;6302;42.624;23.334;2023-04-27T07:28:33;93180.72;;;8.93;71.39
12475;BME280;6302;42.624;23.334;2023-04-27T07:31:02;93178.00;;;9.07;73.08
12475;BME280;6302;42.624;23.334;2023-04-27T07:33:30;93170.00;;;9.21;73.24
12475;BME280;6302;42.624;23.334;2023-04-27T07:35:56;93175.28;;;9.25;69.91
12475;BME280;6302;42.624;23.334;2023-04-27T07:38:23;93186.19;;;9.34;69.51
12475;BME280;6302;42.624;23.334;2023-04-27T07:40:51;93192.31;;;9.20;68.61
12475;BME280;6302;42.624;23.334;2023-04-27T07:43:20;93186.28;;;9.16;68.20
12475;BME280;6302;42.624;23.334;2023-04-27T07:45:48;93190.47;;;9.06;68.64
12475;BME280;6302;42.624;23.334;2023-04-27T07:48:15;93187.47;;;9.08;69.44
12475;BME280;6302;42.624;23.334;2023-04-27T07:50:42;93179.50;;;9.15;69.27
12475;BME280;6302;42.624;23.334;2023-04-27T07:53:09;93176.81;;;9.22;67.60
12475;BME280;6302;42.624;23.334;2023-04-27T07:55:36;93184.72;;;9.29;67.41
12475;BME280;6302;42.624;23.334;2023-04-27T07:58:03;93171.25;;;9.06;67.11
12475;BME280;6302;42.624;23.334;2023-04-27T08:00:31;93179.47;;;9.22;68.94
12475;BME280;6302;42.624;23.334;2023-04-27T08:02:58;93176.69;;;9.47;70.05
12475;BME280;6302;42.624;23.334;2023-04-27T08:05:25;93173.63;;;9.55;68.11
12475;BME280;6302;42.624;23.334;2023-04-27T08:07:52;93175.13;;;9.56;68.03
12475;BME280;6302;42.624;23.334;2023-04-27T08:10:19;93175.41;;;9.72;65.84
12475;BME280;6302;42.624;23.334;2023-04-27T08:12:46;93188.25;;;9.74;66.21
12475;BME280;6302;42.624;23.334;2023-04-27T08:15:12;93191.41;;;9.51;66.00
12475;BME280;6302;42.624;23.334;2023-04-27T08:17:41;93183.84;;;9.50;65.47
12475;BME280;6302;42.624;23.334;2023-04-27T08:20:09;93179.59;;;9.70;67.12
12475;BME280;6302;42.624;23.334;2023-04-27T08:22:36;93180.53;;;9.94;67.29
12475;BME280;6302;42.624;23.334;2023-04-27T08:25:04;93185.41;;;9.99;63.27
12475;BME280;6302;42.624;23.334;2023-04-27T08:27:35;93181.22;;;10.05;61.97
12475;BME280;6302;42.624;23.334;2023-04-27T08:30:02;93187.44;;;9.80;62.49
12475;BME280;6302;42.624;23.334;2023-04-27T08:32:29;93184.28;;;10.00;63.88
12475;BME280;6302;42.624;23.334;2023-04-27T08:34:57;93185.72;;;10.08;63.77
12475;BME280;6302;42.624;23.334;2023-04-27T08:37:24;93179.59;;;10.18;65.42
12475;BME280;6302;42.624;23.334;2023-04-27T08:39:51;93175.75;;;10.29;65.05
12475;BME280;6302;42.624;23.334;2023-04-27T08:42:18;93185.88;;;10.38;63.10
12475;BME280;6302;42.624;23.334;2023-04-27T08:44:45;93180.16;;;10.43;62.46
12475;BME280;6302;42.624;23.334;2023-04-27T08:47:12;93183.06;;;10.56;62.83
12475;BME280;6302;42.624;23.334;2023-04-27T08:49:38;93181.44;;;10.69;64.03
12475;BME280;6302;42.624;23.334;2023-04-27T08:52:12;93184.53;;;10.57;60.02
12475;BME280;6302;42.624;23.334;2023-04-27T08:54:39;93184.44;;;10.67;62.96
12475;BME280;6302;42.624;23.334;2023-04-27T08:57:10;93186.94;;;10.81;61.27
12475;BME280;6302;42.624;23.334;2023-04-27T08:59:37;93192.06;;;10.62;59.08
12475;BME280;6302;42.624;23.334;2023-04-27T09:02:04;93180.63;;;10.72;62.11
12475;BME280;6302;42.624;23.334;2023-04-27T09:04:40;93192.81;;;10.62;59.80
12475;BME280;6302;42.624;23.334;2023-04-27T09:07:12;93175.97;;;10.83;62.92
12475;BME280;6302;42.624;23.334;2023-04-27T09:09:40;93167.72;;;11.07;60.58
12475;BME280;6302;42.624;23.334;2023-04-27T09:12:14;93173.06;;;11.04;60.52
12475;BME280;6302;42.624;23.334;2023-04-27T09:14:42;93182.41;;;11.16;60.62
12475;BME280;6302;42.624;23.334;2023-04-27T09:17:09;93163.56;;;11.06;58.38
12475;BME280;6302;42.624;23.334;2023-04-27T09:19:36;93172.78;;;10.98;59.41
12475;BME280;6302;42.624;23.334;2023-04-27T09:22:07;93162.78;;;11.09;60.49
12475;BME280;6302;42.624;23.334;2023-04-27T09:24:37;93172.88;;;11.48;59.54
12475;BME280;6302;42.624;23.334;2023-04-27T09:27:05;93157.47;;;11.66;58.23
12475;BME280;6302;42.624;23.334;2023-04-27T09:29:34;93159.75;;;11.68;54.89
12475;BME280;6302;42.624;23.334;2023-04-27T09:32:01;93147.06;;;11.52;54.98
12475;BME280;6302;42.624;23.334;2023-04-27T09:34:38;93156.81;;;11.59;55.37
12475;BME280;6302;42.624;23.334;2023-04-27T09:37:06;93147.22;;;11.42;55.06
12475;BME280;6302;42.624;23.334;2023-04-27T09:39:33;93147.44;;;11.51;56.34
12475;BME280;6302;42.624;23.334;2023-04-27T09:42:02;93147.31;;;11.88;56.05
12475;BME280;6302;42.624;23.334;2023-04-27T09:44:30;93147.78;;;11.83;54.38
12475;BME280;6302;42.624;23.334;2023-04-27T09:46:57;93144.47;;;11.75;53.75
12475;BME280;6302;42.624;23.334;2023-04-27T09:49:25;93143.09;;;11.64;53.45
12475;BME280;6302;42.624;23.334;2023-04-27T09:51:54;93134.06;;;11.58;48.84
12475;BME280;6302;42.624;23.334;2023-04-27T09:54:24;93133.84;;;11.75;54.42
12475;BME280;6302;42.624;23.334;2023-04-27T09:57:00;93134.63;;;11.76;54.22
12475;BME280;6302;42.624;23.334;2023-04-27T09:59:59;93140.88;;;11.62;55.05
12475;BME280;6302;42.624;23.334;2023-04-27T10:02:40;93139.22;;;11.72;53.00
12475;BME280;6302;42.624;23.334;2023-04-27T10:05:20;93127.28;;;11.57;52.54
12475;BME280;6302;42.624;23.334;2023-04-27T10:07:50;93125.50;;;12.23;54.91
12475;BME280;6302;42.624;23.334;2023-04-27T10:10:18;93126.38;;;12.60;52.35
12475;BME280;6302;42.624;23.334;2023-04-27T10:12:55;93115.63;;;13.06;52.53
12475;BME280;6302;42.624;23.334;2023-04-27T10:15:27;93116.97;;;12.75;48.01
12475;BME280;6302;42.624;23.334;2023-04-27T10:17:54;93126.31;;;12.44;46.96
12475;BME280;6302;42.624;23.334;2023-04-27T10:20:30;93123.28;;;12.22;46.55
12475;BME280;6302;42.624;23.334;2023-04-27T10:22:58;93126.06;;;12.34;50.03
12475;BME280;6302;42.624;23.334;2023-04-27T10:25:27;93118.66;;;12.46;50.01
12475;BME280;6302;42.624;23.334;2023-04-27T10:27:57;93127.56;;;12.59;49.43
12475;BME280;6302;42.624;23.334;2023-04-27T10:30:30;93118.50;;;12.33;50.12
12475;BME280;6302;42.624;23.334;2023-04-27T10:32:59;93122.69;;;12.11;50.48
12475;BME280;6302;42.624;23.334;2023-04-27T10:35:33;93114.19;;;12.19;50.11
12475;BME280;6302;42.624;23.334;2023-04-27T10:38:08;93113.38;;;12.22;49.66
12475;BME280;6302;42.624;23.334;2023-04-27T10:40:36;93143.50;;;12.59;47.99
12475;BME280;6302;42.624;23.334;2023-04-27T10:43:07;93117.72;;;12.56;48.64
12475;BME280;6302;42.624;23.334;2023-04-27T10:45:35;93117.31;;;12.96;48.23
12475;BME280;6302;42.624;23.334;2023-04-27T10:48:03;93103.47;;;13.05;47.38
12475;BME280;6302;42.624;23.334;2023-04-27T10:50:30;93116.94;;;13.18;49.22
12475;BME280;6302;42.624;23.334;2023-04-27T10:53:02;93108.00;;;12.69;47.36
12475;BME280;6302;42.624;23.334;2023-04-27T10:55:29;93118.50;;;12.95;47.74
12475;BME280;6302;42.624;23.334;2023-04-27T10:57:56;93112.38;;;13.18;46.88
12475;BME280;6302;42.624;23.334;2023-04-27T11:00:25;93102.94;;;13.49;47.80
12475;BME280;6302;42.624;23.334;2023-04-27T11:02:54;93108.09;;;13.40;46.80
12475;BME280;6302;42.624;23.334;2023-04-27T11:05:23;93104.22;;;13.05;45.03
12475;BME280;6302;42.624;23.334;2023-04-27T11:08:03;93110.50;;;12.95;46.31
12475;BME280;6302;42.624;23.334;2023-04-27T11:10:30;93106.34;;;13.14;45.23
12475;BME280;6302;42.624;23.334;2023-04-27T11:12:57;93088.81;;;12.97;44.55
12475;BME280;6302;42.624;23.334;2023-04-27T11:15:24;93102.31;;;12.86;44.99
12475;BME280;6302;42.624;23.334;2023-04-27T11:17:50;93106.34;;;12.75;46.21
12475;BME280;6302;42.624;23.334;2023-04-27T11:20:24;93112.13;;;12.70;46.16
12475;BME280;6302;42.624;23.334;2023-04-27T11:22:51;93115.19;;;12.49;47.93
12475;BME280;6302;42.624;23.334;2023-04-27T11:25:26;93114.59;;;12.18;46.44
12475;BME280;6302;42.624;23.334;2023-04-27T11:27:53;93117.75;;;12.32;47.94
12475;BME280;6302;42.624;23.334;2023-04-27T11:30:21;93113.78;;;12.64;47.80
12475;BME280;6302;42.624;23.334;2023-04-27T11:32:49;93110.03;;;12.61;46.67
12475;BME280;6302;42.624;23.334;2023-04-27T11:35:17;93111.13;;;13.03;48.76
12475;BME280;6302;42.624;23.334;2023-04-27T11:37:55;93120.19;;;13.25;47.11
12475;BME280;6302;42.624;23.334;2023-04-27T11:40:23;93112.47;;;13.11;45.77
12475;BME280;6302;42.624;23.334;2023-04-27T11:42:55;93103.09;;;13.42;46.90
12475;BME280;6302;42.624;23.334;2023-04-27T11:45:26;93108.78;;;13.77;42.09
12475;BME280;6302;42.624;23.334;2023-04-27T11:47:53;93103.19;;;13.55;45.23
12475;BME280;6302;42.624;23.334;2023-04-27T11:50:23;93115.47;;;13.33;47.79
12475;BME280;6302;42.624;23.334;2023-04-27T11:52:51;93116.69;;;12.89;47.98
12475;BME280;6302;42.624;23.334;2023-04-27T11:55:19;93129.16;;;12.53;46.92
12475;BME280;6302;42.624;23.334;2023-04-27T11:57:46;93129.13;;;12.33;48.56
12475;BME280;6302;42.624;23.334;2023-04-27T12:00:14;93121.38;;;12.42;49.22
12475;BME280;6302;42.624;23.334;2023-04-27T12:02:42;93136.47;;;12.49;48.69
12475;BME280;6302;42.624;23.334;2023-04-27T12:05:09;93125.69;;;12.56;48.71
12475;BME280;6302;42.624;23.334;2023-04-27T12:07:36;93132.41;;;12.40;48.12
12475;BME280;6302;42.624;23.334;2023-04-27T12:10:06;93131.16;;;12.49;47.79
12475;BME280;6302;42.624;23.334;2023-04-27T12:12:33;93125.84;;;12.49;46.66
12475;BME280;6302;42.624;23.334;2023-04-27T12:15:00;93134.69;;;12.62;47.38
12475;BME280;6302;42.624;23.334;2023-04-27T12:17:27;93132.41;;;12.40;46.48
12475;BME280;6302;42.624;23.334;2023-04-27T12:19:54;93137.56;;;12.28;48.22
12475;BME280;6302;42.624;23.334;2023-04-27T12:22:20;93129.81;;;12.37;47.98
12475;BME280;6302;42.624;23.334;2023-04-27T12:24:47;93136.13;;;12.23;49.21
12475;BME280;6302;42.624;23.334;2023-04-27T12:27:16;93142.59;;;12.46;50.57
12475;BME280;6302;42.624;23.334;2023-04-27T12:29:42;93133.06;;;12.48;50.10
12475;BME280;6302;42.624;23.334;2023-04-27T12:32:09;93136.97;;;12.63;49.72
12475;BME280;6302;42.624;23.334;2023-04-27T12:34:36;93143.25;;;12.50;48.80
12475;BME280;6302;42.624;23.334;2023-04-27T12:37:03;93137.88;;;12.10;47.48
12475;BME280;6302;42.624;23.334;2023-04-27T12:39:30;93140.94;;;12.09;49.43
12475;BME280;6302;42.624;23.334;2023-04-27T12:41:57;93136.00;;;12.30;50.42
12475;BME280;6302;42.624;23.334;2023-04-27T12:44:25;93142.22;;;12.24;49.53
12475;BME280;6302;42.624;23.334;2023-04-27T12:46:52;93134.38;;;11.90;49.53
12475;BME280;6302;42.624;23.334;2023-04-27T12:49:19;93145.25;;;12.22;50.70
12475;BME280;6302;42.624;23.334;2023-04-27T12:51:46;93144.75;;;12.31;49.88
12475;BME280;6302;42.624;23.334;2023-04-27T12:54:16;93143.97;;;12.30;48.60
12475;BME280;6302;42.624;23.334;2023-04-27T12:56:43;93153.72;;;12.37;49.49
12475;BME280;6302;42.624;23.334;2023-04-27T12:59:09;93147.81;;;12.06;50.00
12475;BME280;6302;42.624;23.334;2023-04-27T13:01:37;93140.66;;;12.26;50.88
12475;BME280;6302;42.624;23.334;2023-04-27T13:04:05;93145.72;;;12.40;50.77
12475;BME280;6302;42.624;23.334;2023-04-27T13:06:33;93144.56;;;12.42;48.84
12475;BME280;6302;42.624;23.334;2023-04-27T13:09:01;93138.16;;;12.39;50.60
12475;BME280;6302;42.624;23.334;2023-04-27T13:11:28;93144.94;;;12.40;48.63